Time;durP1;ratioP1;P1;durP2;ratioP2;P2;SDS_P1;SDS_P2;PMS_P1;PMS_P2;Temp;Humidity;BMP_temperature;BMP_pressure;BME280_temperature;BME280_humidity;BME280_pressure;Samples;Min_cycle;Max_cycle;Signal;HPM_P1;HPM_P2
2023/08/06 00:00:47;;;;;;;;;0.00;0.00;;;;;17.64;81.71;100548.16;5001311;28;46365;-66
2023/08/06 00:03:13;;;;;;;;;0.00;0.00;;;;;17.80;81.94;100577.75;5010407;28;45305;-65
2023/08/06 00:05:42;;;;;;;;;0.75;0.00;;;;;17.73;81.44;100561.09;5000236;28;45504;-66
2023/08/06 00:08:08;;;;;;;;;1.00;0.00;;;;;17.76;81.50;100571.69;4983760;28;45404;-66
2023/08/06 00:10:33;;;;;;;;;0.00;0.00;;;;;17.63;81.75;100552.72;5001378;28;46519;-66
2023/08/06 00:12:58;;;;;;;;;0.00;0.00;;;;;17.77;81.48;100585.09;5001365;28;45401;-65
2023/08/06 00:15:24;;;;;;;;;0.00;0.00;;;;;17.67;81.22;100564.16;5001140;28;45266;-66
2023/08/06 00:17:49;;;;;;;;;0.00;0.00;;;;;17.58;81.56;100571.03;5001316;28;45228;-66
2023/08/06 00:20:14;;;;;;;;;0.00;0.00;;;;;17.59;81.62;100583.53;5001072;28;45576;-66
2023/08/06 00:22:40;;;;;;;;;0.00;0.00;;;;;17.59;81.56;100589.84;4983580;28;45302;-66
2023/08/06 00:25:05;;;;;;;;;0.00;0.00;;;;;17.52;81.32;100572.28;5001431;28;45321;-65
2023/08/06 00:27:32;;;;;;;;;0.00;0.00;;;;;17.54;81.45;100591.06;5001247;28;45341;-66
2023/08/06 00:29:58;;;;;;;;;0.00;0.00;;;;;17.51;81.47;100577.81;5014010;28;46443;-65
2023/08/06 00:32:23;;;;;;;;;0.00;0.00;;;;;17.38;81.66;100575.00;5001082;28;45437;-66
2023/08/06 00:34:51;;;;;;;;;0.00;0.00;;;;;17.50;81.00;100601.19;5001030;28;45400;-65
2023/08/06 00:37:17;;;;;;;;;1.00;0.00;;;;;17.65;81.21;100628.19;5009714;28;45363;-66
2023/08/06 00:39:43;;;;;;;;;0.00;0.00;;;;;17.50;80.84;100605.75;5000803;28;45441;-66
2023/08/06 00:42:09;;;;;;;;;0.00;0.00;;;;;17.52;80.96;100606.50;5000998;28;45540;-66
2023/08/06 00:44:34;;;;;;;;;0.50;0.00;;;;;17.46;80.68;100604.19;5000583;28;45377;-66
2023/08/06 00:47:00;;;;;;;;;0.00;0.00;;;;;17.38;80.55;100594.75;4983144;28;45508;-66
2023/08/06 00:49:25;;;;;;;;;0.00;0.00;;;;;17.49;80.62;100625.59;5000745;28;46457;-66
2023/08/06 00:51:51;;;;;;;;;0.50;0.00;;;;;17.64;81.20;100646.22;5000746;28;45461;-66
2023/08/06 00:54:17;;;;;;;;;0.00;0.00;;;;;17.48;81.25;100627.44;5000863;28;45600;-65
2023/08/06 00:56:42;;;;;;;;;1.00;0.00;;;;;17.62;81.28;100664.31;5000631;28;45402;-66
2023/08/06 00:59:10;;;;;;;;;0.00;0.00;;;;;17.57;81.28;100664.63;5000370;28;45483;-66
2023/08/06 01:01:35;;;;;;;;;0.50;0.25;;;;;17.53;81.08;100670.31;4987783;28;45511;-66
2023/08/06 01:04:01;;;;;;;;;0.00;0.00;;;;;17.33;81.23;100625.69;4989142;28;45540;-66
2023/08/06 01:06:48;;;;;;;;;0.00;0.00;;;;;17.56;81.64;100675.53;5020530;28;45545;-66
2023/08/06 01:09:41;;;;;;;;;0.00;0.00;;;;;17.57;81.72;100672.75;5020005;28;45369;-66
2023/08/06 01:12:20;;;;;;;;;0.75;0.00;;;;;17.40;81.73;100649.47;5002272;28;45355;-66
2023/08/06 01:15:01;;;;;;;;;0.00;0.00;;;;;17.55;81.60;100689.97;5020380;28;45254;-66
2023/08/06 01:17:26;;;;;;;;;0.50;0.50;;;;;17.32;81.56;100659.03;5020171;28;45488;-65
2023/08/06 01:19:52;;;;;;;;;1.50;0.00;;;;;17.19;81.29;100640.03;5020200;28;45563;-66
2023/08/06 01:22:17;;;;;;;;;0.75;0.00;;;;;17.37;81.49;100660.50;5020130;28;45592;-66
2023/08/06 01:24:47;;;;;;;;;0.25;0.25;;;;;17.40;81.82;100678.31;5020342;28;45804;-66
2023/08/06 01:27:28;;;;;;;;;0.00;0.00;;;;;17.54;81.64;100696.31;5020099;28;45369;-65
2023/08/06 01:30:04;;;;;;;;;1.00;1.00;;;;;17.42;81.27;100695.25;5017003;28;46334;-65
2023/08/06 01:32:34;;;;;;;;;0.00;0.00;;;;;17.30;81.55;100678.00;4999562;28;45518;-65
2023/08/06 01:35:00;;;;;;;;;0.50;0.50;;;;;17.32;81.42;100677.91;5000101;28;45493;-66
2023/08/06 01:37:27;;;;;;;;;1.50;0.75;;;;;17.35;81.56;100689.38;5000117;28;45675;-66
2023/08/06 01:39:52;;;;;;;;;0.00;0.00;;;;;17.39;81.65;100699.03;4999874;28;46781;-66
2023/08/06 01:42:18;;;;;;;;;1.50;0.00;;;;;17.28;81.20;100698.81;4999916;28;45378;-66
2023/08/06 01:44:43;;;;;;;;;2.25;1.00;;;;;17.23;81.29;100698.22;4999754;28;45528;-66
2023/08/06 01:47:08;;;;;;;;;0.75;0.75;;;;;17.34;81.22;100713.75;4999942;28;45559;-66
2023/08/06 01:49:34;;;;;;;;;1.75;1.00;;;;;17.15;80.75;100693.28;4999678;28;45363;-66
2023/08/06 01:52:00;;;;;;;;;1.75;1.00;;;;;17.22;80.53;100707.28;4999918;28;45306;-66
2023/08/06 01:54:26;;;;;;;;;0.00;0.00;;;;;17.19;80.54;100700.25;4999868;28;45313;-66
2023/08/06 01:56:51;;;;;;;;;1.00;1.00;;;;;17.16;79.82;100702.28;4999754;28;45511;-66
2023/08/06 01:59:16;;;;;;;;;1.00;1.00;;;;;17.14;79.89;100707.75;4999452;28;46125;-66
2023/08/06 02:01:42;;;;;;;;;1.00;1.00;;;;;17.20;79.76;100723.53;5005265;28;45312;-66
2023/08/06 02:04:07;;;;;;;;;1.25;1.25;;;;;17.13;79.39;100718.63;4984310;28;45488;-66
2023/08/06 02:06:32;;;;;;;;;2.00;2.00;;;;;17.19;79.90;100735.31;4999620;28;45486;-66
2023/08/06 02:08:58;;;;;;;;;2.00;2.00;;;;;17.14;79.76;100733.84;4999516;28;45388;-66
2023/08/06 02:11:23;;;;;;;;;3.50;2.75;;;;;17.16;79.62;100740.03;4999535;28;45372;-65
2023/08/06 02:13:48;;;;;;;;;1.75;1.75;;;;;17.17;79.49;100752.53;4999401;28;45520;-66
2023/08/06 02:16:14;;;;;;;;;0.00;0.00;;;;;17.08;79.71;100742.31;4999504;28;45498;-66
2023/08/06 02:18:39;;;;;;;;;1.00;1.00;;;;;17.06;79.23;100730.72;4999252;28;45392;-65
2023/08/06 02:21:04;;;;;;;;;2.00;2.00;;;;;17.06;79.69;100728.03;4999457;28;45537;-66
2023/08/06 02:23:30;;;;;;;;;3.00;2.00;;;;;17.26;79.31;100765.50;4999432;28;45496;-66
2023/08/06 02:26:02;;;;;;;;;2.50;1.75;;;;;17.10;79.38;100754.72;4981705;28;45369;-66
2023/08/06 02:28:28;;;;;;;;;2.00;2.00;;;;;17.08;79.09;100753.09;5001817;28;47273;-66
2023/08/06 02:30:54;;;;;;;;;2.00;2.00;;;;;17.11;79.55;100761.88;5008232;28;45496;-66
2023/08/06 02:33:19;;;;;;;;;2.75;2.00;;;;;17.12;79.74;100766.28;4999328;28;45444;-66
2023/08/06 02:35:44;;;;;;;;;2.00;2.00;;;;;17.00;80.10;100740.91;4999165;28;45586;-66
2023/08/06 02:38:10;;;;;;;;;3.00;2.75;;;;;17.26;79.90;100791.56;4981316;28;46335;-66
2023/08/06 02:40:35;;;;;;;;;2.00;2.00;;;;;17.06;79.99;100763.09;4999352;28;45442;-66
2023/08/06 02:43:00;;;;;;;;;2.75;1.25;;;;;17.13;79.85;100784.22;4998254;28;45385;-66
2023/08/06 02:45:26;;;;;;;;;3.00;3.00;;;;;17.23;80.04;100800.72;4998824;28;45512;-66
2023/08/06 02:47:51;;;;;;;;;4.25;2.00;;;;;17.08;79.62;100778.22;4998816;28;46189;-66
2023/08/06 02:50:16;;;;;;;;;2.00;2.00;;;;;16.92;79.76;100755.81;4999197;28;45371;-66
2023/08/06 02:52:42;;;;;;;;;2.00;2.00;;;;;17.13;80.01;100789.63;4999077;28;45349;-65
2023/08/06 02:55:07;;;;;;;;;2.50;2.50;;;;;17.18;79.68;100798.31;4999076;28;45319;-66
2023/08/06 02:57:33;;;;;;;;;2.00;2.00;;;;;17.04;79.42;100774.00;4998832;28;45350;-66
2023/08/06 02:59:58;;;;;;;;;3.00;2.00;;;;;16.98;79.33;100779.75;4998868;28;45229;-66
2023/08/06 03:02:23;;;;;;;;;2.00;2.00;;;;;17.04;79.61;100792.88;5007909;28;45426;-66
2023/08/06 03:04:49;;;;;;;;;4.50;3.00;;;;;16.99;79.31;100784.16;4998906;28;45376;-66
2023/08/06 03:07:14;;;;;;;;;3.00;3.00;;;;;17.06;79.53;100795.44;4998733;28;46586;-66
2023/08/06 03:09:39;;;;;;;;;2.75;2.00;;;;;17.08;79.12;100798.94;4998898;28;45286;-65
2023/08/06 03:12:05;;;;;;;;;3.00;3.00;;;;;16.98;78.58;100794.06;4998866;28;45267;-66
2023/08/06 03:14:30;;;;;;;;;2.00;2.00;;;;;16.99;78.52;100803.91;4998688;28;45620;-66
2023/08/06 03:16:56;;;;;;;;;2.75;2.75;;;;;16.97;78.66;100794.16;4998460;28;46207;-66
2023/08/06 03:19:21;;;;;;;;;2.50;2.25;;;;;17.15;79.19;100821.91;4998771;28;45247;-66
2023/08/06 03:21:46;;;;;;;;;3.00;3.00;;;;;16.95;78.92;100794.25;4998704;28;45750;-66
2023/08/06 03:24:14;;;;;;;;;4.00;3.00;;;;;17.20;78.66;100839.53;4997470;28;45527;-66
2023/08/06 03:26:39;;;;;;;;;4.00;2.00;;;;;17.01;79.15;100804.69;4998399;28;45660;-66
2023/08/06 03:29:04;;;;;;;;;3.50;3.00;;;;;16.96;78.62;100792.44;5007553;28;45436;-66
2023/08/06 03:31:29;;;;;;;;;4.00;2.75;;;;;16.99;79.10;100794.94;5013818;28;45406;-66
2023/08/06 03:33:55;;;;;;;;;4.00;3.00;;;;;16.99;78.56;100805.72;4998541;28;45566;-66
2023/08/06 03:36:20;;;;;;;;;2.75;2.00;;;;;17.11;78.70;100829.31;4998232;28;46653;-66
2023/08/06 03:38:46;;;;;;;;;3.00;3.00;;;;;16.90;78.92;100796.34;4998527;28;45557;-66
2023/08/06 03:41:11;;;;;;;;;3.25;3.25;;;;;16.92;78.91;100812.44;4998556;28;45559;-66
2023/08/06 03:43:36;;;;;;;;;2.50;2.50;;;;;16.91;79.38;100810.72;4998174;28;45428;-66
2023/08/06 03:46:02;;;;;;;;;3.00;3.00;;;;;16.99;79.24;100828.19;4998231;28;45589;-66
2023/08/06 03:48:27;;;;;;;;;3.00;3.00;;;;;17.10;79.43;100853.66;4998228;28;45332;-66
2023/08/06 03:50:52;;;;;;;;;3.00;2.00;;;;;16.96;79.50;100838.28;4998401;28;45478;-66
2023/08/06 03:53:18;;;;;;;;;3.75;3.75;;;;;16.92;79.72;100834.00;4998275;28;45328;-66
2023/08/06 03:55:43;;;;;;;;;3.00;2.25;;;;;16.85;79.60;100820.88;5000292;28;45388;-66
2023/08/06 03:58:08;;;;;;;;;2.00;2.00;;;;;16.84;79.37;100815.56;5001417;28;45319;-66
2023/08/06 04:00:34;;;;;;;;;3.75;3.75;;;;;16.90;79.37;100827.84;5001578;28;45301;-66
2023/08/06 04:02:59;;;;;;;;;1.00;1.00;;;;;16.84;79.34;100829.94;5009467;28;46296;-66
2023/08/06 04:05:24;;;;;;;;;3.75;2.50;;;;;16.83;79.39;100820.06;5001218;28;45510;-66
2023/08/06 04:07:50;;;;;;;;;2.50;2.50;;;;;17.09;79.31;100863.59;5001410;28;45327;-66
2023/08/06 04:10:15;;;;;;;;;3.00;3.00;;;;;16.82;78.72;100821.03;5001495;28;45308;-66
2023/08/06 04:12:40;;;;;;;;;5.00;3.00;;;;;16.92;78.70;100844.78;5001327;28;45267;-66
2023/08/06 04:15:06;;;;;;;;;3.75;3.75;;;;;16.97;78.35;100846.28;5000906;28;46123;-66
2023/08/06 04:17:32;;;;;;;;;3.50;2.50;;;;;16.88;78.60;100838.72;5001248;28;45566;-66
2023/08/06 04:19:58;;;;;;;;;2.50;2.00;;;;;17.12;78.61;100890.34;5001355;28;45371;-66
2023/08/06 04:22:24;;;;;;;;;3.75;2.00;;;;;17.10;78.37;100886.03;5001237;28;45587;-66
2023/08/06 04:24:49;;;;;;;;;5.00;3.00;;;;;16.89;78.16;100867.44;5001019;28;46460;-66
2023/08/06 04:27:16;;;;;;;;;4.00;2.50;;;;;16.94;78.23;100886.00;5001205;28;45383;-66
2023/08/06 04:29:42;;;;;;;;;3.75;2.75;;;;;16.89;78.03;100889.00;5014190;28;45451;-66
2023/08/06 04:32:09;;;;;;;;;3.00;3.00;;;;;16.94;77.67;100892.31;5001012;28;45327;-66
2023/08/06 04:34:36;;;;;;;;;1.75;1.75;;;;;16.85;77.63;100885.56;5000901;28;46445;-66
2023/08/06 04:37:02;;;;;;;;;3.00;2.50;;;;;16.94;77.79;100899.50;5000793;28;45515;-66
2023/08/06 04:39:27;;;;;;;;;3.75;3.00;;;;;16.95;77.46;100907.50;5000895;28;45460;-66
2023/08/06 04:41:53;;;;;;;;;3.00;3.00;;;;;16.92;77.39;100902.28;5000940;28;45284;-66
2023/08/06 04:44:18;;;;;;;;;3.00;2.00;;;;;16.95;77.23;100906.66;5000298;28;46321;-66
2023/08/06 04:46:44;;;;;;;;;3.00;2.00;;;;;17.08;77.38;100928.41;5000944;28;45532;-66
2023/08/06 04:49:09;;;;;;;;;3.75;3.00;;;;;16.92;76.96;100896.03;4983147;28;45358;-66
2023/08/06 04:51:35;;;;;;;;;3.50;3.00;;;;;16.76;77.17;100882.53;5000820;28;45372;-66
2023/08/06 04:54:00;;;;;;;;;3.00;3.00;;;;;16.87;76.97;100906.19;5000680;28;46565;-66
2023/08/06 04:56:26;;;;;;;;;2.00;2.00;;;;;16.88;77.07;100918.75;5000649;28;45437;-66
2023/08/06 04:58:52;;;;;;;;;2.00;2.00;;;;;16.99;76.82;100938.75;5000695;28;45258;-65
2023/08/06 05:01:17;;;;;;;;;3.25;2.00;;;;;17.02;76.92;100949.38;5003095;28;45227;-66
2023/08/06 05:03:43;;;;;;;;;2.75;2.75;;;;;16.98;76.59;100938.84;5005434;28;46209;-66
2023/08/06 05:06:08;;;;;;;;;3.00;2.75;;;;;16.92;76.76;100933.78;4999652;28;45352;-65
2023/08/06 05:08:33;;;;;;;;;1.50;1.50;;;;;17.06;76.93;100966.25;5000698;28;45298;-66
2023/08/06 05:10:59;;;;;;;;;3.00;3.00;;;;;16.90;76.92;100947.34;5000587;28;45315;-65
2023/08/06 05:13:25;;;;;;;;;4.00;3.00;;;;;16.83;77.20;100936.00;5000051;28;46797;-65
2023/08/06 05:15:51;;;;;;;;;3.50;3.50;;;;;16.85;77.00;100935.94;4982639;28;46003;-65
2023/08/06 05:18:16;;;;;;;;;2.00;2.00;;;;;16.85;76.65;100960.22;4982819;28;45614;-66
2023/08/06 05:20:43;;;;;;;;;2.50;2.00;;;;;16.87;76.96;100952.91;5000538;28;45472;-66
2023/08/06 05:23:08;;;;;;;;;2.50;2.50;;;;;16.80;76.82;100954.16;5000039;28;45632;-66
2023/08/06 05:25:38;;;;;;;;;3.00;2.75;;;;;16.90;77.04;100974.31;5000303;28;45680;-65
2023/08/06 05:28:03;;;;;;;;;3.25;3.25;;;;;16.70;77.23;100947.53;5000930;28;45385;-65
2023/08/06 05:30:29;;;;;;;;;4.00;3.00;;;;;16.98;76.81;100990.94;5012611;28;45479;-66
2023/08/06 05:32:55;;;;;;;;;2.00;2.00;;;;;16.83;76.96;100964.78;4999914;28;46523;-65
2023/08/06 05:35:21;;;;;;;;;1.00;1.00;;;;;17.08;77.19;101009.31;5000051;28;45259;-66
2023/08/06 05:37:46;;;;;;;;;3.75;2.00;;;;;16.87;77.51;100987.94;4998792;28;45312;-66
2023/08/06 05:40:11;;;;;;;;;2.75;2.75;;;;;16.98;77.53;101025.13;5000140;28;45370;-66
2023/08/06 05:42:36;;;;;;;;;2.00;2.00;;;;;16.78;77.70;100996.53;4982265;28;47243;-66
2023/08/06 05:45:02;;;;;;;;;2.75;2.00;;;;;16.67;77.62;100986.31;4999635;28;45487;-66
2023/08/06 05:47:27;;;;;;;;;2.50;2.50;;;;;16.80;77.39;101005.38;4998597;28;45364;-66
2023/08/06 05:49:53;;;;;;;;;2.75;2.75;;;;;16.86;77.65;101007.78;5000066;28;45464;-65
2023/08/06 05:52:18;;;;;;;;;5.00;2.25;;;;;16.87;77.87;101006.81;4999632;28;45460;-66
2023/08/06 05:54:43;;;;;;;;;4.00;3.00;;;;;16.87;77.55;101005.97;4999953;28;45306;-66
2023/08/06 05:57:09;;;;;;;;;4.00;2.50;;;;;17.03;77.69;101034.69;4999744;28;45448;-66
2023/08/06 05:59:34;;;;;;;;;2.00;2.00;;;;;17.08;77.65;101036.28;4999722;28;45384;-66
2023/08/06 06:02:00;;;;;;;;;5.00;2.00;;;;;16.99;77.77;101024.16;5007586;28;45616;-66
2023/08/06 06:04:25;;;;;;;;;3.00;2.00;;;;;17.09;77.84;101055.09;4999741;28;45448;-66
2023/08/06 06:06:51;;;;;;;;;3.50;3.00;;;;;17.11;78.09;101055.84;4999782;28;45529;-66
2023/08/06 06:09:16;;;;;;;;;2.00;2.00;;;;;16.94;78.15;101035.22;4999242;28;45445;-66
2023/08/06 06:11:41;;;;;;;;;1.75;1.75;;;;;16.95;77.87;101036.94;4999118;28;45469;-66
2023/08/06 06:14:07;;;;;;;;;3.75;3.25;;;;;17.01;77.66;101046.53;4999030;28;45524;-66
2023/08/06 06:16:32;;;;;;;;;3.00;2.00;;;;;17.02;77.88;101050.94;4999222;28;45551;-66
2023/08/06 06:18:57;;;;;;;;;2.00;2.00;;;;;17.15;77.88;101065.50;4998908;28;45512;-66
2023/08/06 06:21:24;;;;;;;;;2.25;2.00;;;;;17.04;77.26;101052.63;4998976;28;45502;-66
2023/08/06 06:23:51;;;;;;;;;2.00;2.00;;;;;17.12;77.50;101062.97;4999368;28;45342;-66
2023/08/06 06:26:17;;;;;;;;;3.00;3.00;;;;;16.94;77.53;101035.22;4999504;28;45331;-66
2023/08/06 06:28:42;;;;;;;;;2.00;2.00;;;;;16.97;76.47;101036.84;4987579;28;45515;-66
2023/08/06 06:31:07;;;;;;;;;1.25;1.25;;;;;17.21;77.35;101097.56;5006549;28;45410;-66
2023/08/06 06:33:33;;;;;;;;;3.25;2.00;;;;;17.23;76.99;101100.16;4999041;28;45364;-66
2023/08/06 06:35:58;;;;;;;;;3.75;1.75;;;;;16.99;77.14;101068.19;4999326;28;45389;-66
2023/08/06 06:38:23;;;;;;;;;3.00;1.00;;;;;16.99;76.74;101070.88;4999133;28;45451;-66
2023/08/06 06:40:56;;;;;;;;;2.00;2.00;;;;;16.96;76.99;101065.66;4981385;28;46930;-66
2023/08/06 06:43:22;;;;;;;;;2.00;2.00;;;;;17.03;77.00;101087.78;4998941;28;45447;-66
2023/08/06 06:45:53;;;;;;;;;2.00;2.00;;;;;16.94;76.50;101074.75;4997688;28;45416;-66
2023/08/06 06:48:18;;;;;;;;;4.25;3.00;;;;;16.95;76.61;101073.81;4999231;28;45359;-65
2023/08/06 06:50:47;;;;;;;;;1.00;1.00;;;;;16.99;76.64;101092.47;4998996;28;45421;-65
2023/08/06 06:53:13;;;;;;;;;3.75;2.00;;;;;17.03;77.02;101104.81;4999088;28;45591;-66
2023/08/06 06:55:38;;;;;;;;;3.00;1.00;;;;;17.01;76.48;101095.06;4999070;28;45462;-66
2023/08/06 06:58:03;;;;;;;;;1.75;1.75;;;;;16.99;76.63;101096.97;4997513;28;46044;-66
2023/08/06 07:00:28;;;;;;;;;2.00;1.00;;;;;16.90;76.88;101084.00;4998857;28;45529;-65
2023/08/06 07:02:54;;;;;;;;;2.00;2.00;;;;;17.15;76.60;101121.28;5007228;28;45460;-66
2023/08/06 07:05:19;;;;;;;;;1.50;1.00;;;;;17.16;76.77;101118.50;4998783;28;45524;-66
2023/08/06 07:07:44;;;;;;;;;1.00;1.00;;;;;16.98;77.03;101076.34;4999058;28;45488;-66
2023/08/06 07:10:11;;;;;;;;;1.75;1.00;;;;;16.94;76.42;101072.97;4998595;28;46476;-66
2023/08/06 07:12:36;;;;;;;;;4.25;2.50;;;;;16.97;75.54;101090.78;4981075;28;45563;-66
2023/08/06 07:15:04;;;;;;;;;2.00;2.00;;;;;17.03;75.63;101107.50;4998702;28;45424;-65
2023/08/06 07:17:30;;;;;;;;;1.00;1.00;;;;;16.98;75.04;101100.63;4998964;28;45297;-65
2023/08/06 07:19:55;;;;;;;;;3.50;1.75;;;;;17.03;75.11;101106.66;4998576;28;45532;-65
2023/08/06 07:22:20;;;;;;;;;1.00;1.00;;;;;17.10;74.77;101126.94;4998734;28;45410;-65
2023/08/06 07:24:46;;;;;;;;;1.75;1.75;;;;;17.03;74.63;101114.72;4998759;28;45424;-65
2023/08/06 07:27:11;;;;;;;;;1.00;1.00;;;;;17.08;74.15;101109.97;4998838;28;45415;-65
2023/08/06 07:29:36;;;;;;;;;1.00;1.00;;;;;17.19;72.91;101141.75;5012352;28;45580;-65
2023/08/06 07:32:02;;;;;;;;;1.75;1.00;;;;;16.95;73.41;101100.78;5002122;28;45273;-66
2023/08/06 07:34:27;;;;;;;;;2.75;1.75;;;;;17.01;73.68;101106.72;4984309;28;45417;-66
2023/08/06 07:36:52;;;;;;;;;2.00;2.00;;;;;17.02;73.19;101103.09;5001738;28;45520;-65
2023/08/06 07:39:18;;;;;;;;;1.00;1.00;;;;;17.04;72.81;101116.50;5001869;28;45365;-66
2023/08/06 07:41:45;;;;;;;;;2.00;2.00;;;;;17.20;72.35;101146.19;5000597;28;45464;-66
2023/08/06 07:44:11;;;;;;;;;2.00;2.00;;;;;17.06;71.88;101116.38;5001566;28;45673;-66
2023/08/06 07:46:36;;;;;;;;;1.75;1.75;;;;;17.18;71.72;101140.00;5001735;28;45596;-66
2023/08/06 07:49:02;;;;;;;;;1.00;1.00;;;;;16.94;71.14;101110.72;5001495;28;45377;-66
2023/08/06 07:51:28;;;;;;;;;2.00;1.75;;;;;17.09;70.63;101124.31;5001863;28;45434;-65
2023/08/06 07:53:53;;;;;;;;;2.25;2.25;;;;;17.22;70.48;101146.97;4984088;28;45345;-66
2023/08/06 07:56:18;;;;;;;;;2.00;1.00;;;;;17.21;69.88;101134.47;4983933;28;45346;-65
2023/08/06 07:58:44;;;;;;;;;1.00;1.00;;;;;17.17;69.52;101141.84;4983517;28;46388;-66
2023/08/06 08:01:09;;;;;;;;;2.25;1.00;;;;;17.24;68.85;101147.78;4985122;28;45656;-65
2023/08/06 08:03:34;;;;;;;;;2.00;1.00;;;;;17.23;68.65;101146.91;5007742;28;45464;-66
2023/08/06 08:06:00;;;;;;;;;1.75;1.00;;;;;17.22;68.65;101144.28;5001532;28;45536;-66
2023/08/06 08:08:25;;;;;;;;;1.25;1.25;;;;;17.23;68.02;101143.34;5001518;28;46372;-66
2023/08/06 08:10:51;;;;;;;;;2.25;1.25;;;;;17.21;68.52;101140.72;4983732;28;45271;-66
2023/08/06 08:13:16;;;;;;;;;2.00;2.00;;;;;17.27;67.52;101153.00;5001305;28;45308;-66
2023/08/06 08:15:42;;;;;;;;;1.75;1.75;;;;;17.50;67.71;101188.66;5001247;28;45483;-66
2023/08/06 08:18:07;;;;;;;;;3.00;1.50;;;;;17.28;67.54;101159.28;5001088;28;45584;-66
2023/08/06 08:20:35;;;;;;;;;0.00;0.00;;;;;17.36;67.68;101160.59;5001304;28;45416;-66
2023/08/06 08:23:00;;;;;;;;;1.00;1.00;;;;;17.40;68.13;101169.41;5001289;28;45828;-65
2023/08/06 08:25:26;;;;;;;;;2.25;2.25;;;;;17.38;67.63;101169.47;5001140;28;45612;-66
2023/08/06 08:27:52;;;;;;;;;1.75;1.75;;;;;17.40;67.90;101172.97;4983098;28;46200;-66
2023/08/06 08:30:17;;;;;;;;;2.00;2.00;;;;;17.40;68.51;101172.97;5014274;28;45447;-65
2023/08/06 08:32:43;;;;;;;;;0.25;0.25;;;;;17.36;68.44;101168.69;5001249;28;45411;-66
2023/08/06 08:35:08;;;;;;;;;5.00;2.00;;;;;17.62;68.04;101198.78;5000916;28;45326;-65
2023/08/06 08:37:34;;;;;;;;;1.25;1.25;;;;;17.56;68.07;101185.66;5000893;28;45866;-65
2023/08/06 08:40:00;;;;;;;;;1.50;1.25;;;;;17.55;67.06;101189.28;5000887;28;45346;-65
2023/08/06 08:42:26;;;;;;;;;2.50;1.00;;;;;17.64;67.45;101191.50;4982116;28;45360;-66
2023/08/06 08:44:53;;;;;;;;;3.00;1.75;;;;;17.51;66.59;101175.09;5000514;28;45398;-66
2023/08/06 08:47:19;;;;;;;;;2.00;2.00;;;;;17.64;66.93;101198.69;5000628;28;45592;-66
2023/08/06 08:49:46;;;;;;;;;2.25;1.25;;;;;17.67;66.58;101206.63;5000668;28;45377;-65
2023/08/06 08:52:15;;;;;;;;;3.00;2.00;;;;;17.72;66.28;101213.53;5000949;28;45473;-66
2023/08/06 08:54:41;;;;;;;;;1.25;1.25;;;;;17.65;65.79;101214.81;5000656;28;45536;-66
2023/08/06 08:57:06;;;;;;;;;3.00;2.00;;;;;17.69;65.29;101207.41;5000519;28;45456;-65
2023/08/06 08:59:33;;;;;;;;;3.75;3.00;;;;;17.71;66.37;101211.78;5000394;28;45373;-66
2023/08/06 09:02:00;;;;;;;;;2.00;2.00;;;;;17.76;66.11;101216.94;5008651;28;45587;-66
2023/08/06 09:04:31;;;;;;;;;1.50;1.50;;;;;17.85;66.97;101215.56;5000452;28;45542;-66
2023/08/06 09:06:59;;;;;;;;;2.50;1.50;;;;;18.06;65.96;101249.50;5000474;28;46626;-66
2023/08/06 09:09:32;;;;;;;;;0.75;0.75;;;;;18.02;65.47;101226.31;5000583;28;45515;-66
2023/08/06 09:12:02;;;;;;;;;1.50;1.50;;;;;17.89;64.97;101218.06;5000567;28;45393;-65
2023/08/06 09:14:28;;;;;;;;;0.50;0.50;;;;;17.93;64.28;101211.50;4982587;28;45604;-66
2023/08/06 09:16:54;;;;;;;;;0.75;0.75;;;;;17.99;64.80;101229.19;5000145;28;45277;-66
2023/08/06 09:19:20;;;;;;;;;2.00;0.50;;;;;17.83;64.61;101201.28;5000421;28;45426;-66
2023/08/06 09:21:49;;;;;;;;;4.00;1.50;;;;;18.07;65.30;101232.34;5000417;28;45381;-66
2023/08/06 09:24:15;;;;;;;;;0.25;0.25;;;;;18.09;64.25;101241.25;5000389;28;45575;-66
2023/08/06 09:26:43;;;;;;;;;0.50;0.50;;;;;18.02;63.36;101226.31;5000183;28;45792;-66
2023/08/06 09:29:12;;;;;;;;;2.00;1.75;;;;;18.14;63.84;101236.44;5009762;28;45534;-65
2023/08/06 09:31:46;;;;;;;;;2.00;1.00;;;;;18.12;62.98;101224.84;5002981;28;45445;-66
2023/08/06 09:34:16;;;;;;;;;0.75;0.75;;;;;18.23;62.85;101231.50;5000248;28;45679;-65
2023/08/06 09:36:46;;;;;;;;;4.00;1.75;;;;;18.42;63.13;101259.19;4998471;28;47187;-65
2023/08/06 09:39:16;;;;;;;;;2.00;1.00;;;;;18.33;62.96;101235.41;4982443;28;45748;-66
2023/08/06 09:41:42;;;;;;;;;2.00;1.75;;;;;18.38;62.35;101251.38;4999962;28;45424;-66
2023/08/06 09:44:18;;;;;;;;;1.00;1.00;;;;;18.30;62.46;101225.63;4999833;28;45327;-66
2023/08/06 09:46:52;;;;;;;;;1.00;1.00;;;;;18.36;62.74;101226.22;5000059;28;46183;-66
2023/08/06 09:49:19;;;;;;;;;2.50;2.00;;;;;18.39;62.52;101239.56;4999898;28;45278;-66
2023/08/06 09:51:46;;;;;;;;;2.00;1.00;;;;;18.59;62.08;101262.75;4998588;28;45545;-66
2023/08/06 09:54:15;;;;;;;;;0.00;0.00;;;;;18.46;62.59;101246.38;4999611;28;45385;-66
2023/08/06 09:56:42;;;;;;;;;1.75;1.00;;;;;18.48;63.26;101233.66;4999789;28;45675;-66
2023/08/06 09:59:08;;;;;;;;;1.50;1.50;;;;;18.48;63.18;101229.13;4999478;28;45567;-65
2023/08/06 10:01:35;;;;;;;;;2.00;0.75;;;;;18.55;61.88;101243.16;5004448;28;45333;-66
2023/08/06 10:04:05;;;;;;;;;0.75;0.25;;;;;18.52;61.21;101227.97;5003452;28;45595;-65
2023/08/06 10:06:34;;;;;;;;;1.00;1.00;;;;;18.56;61.73;101228.69;4981956;28;46378;-66
2023/08/06 10:09:00;;;;;;;;;1.00;1.00;;;;;18.85;61.99;101277.50;4999552;28;45341;-66
2023/08/06 10:11:28;;;;;;;;;1.50;1.25;;;;;18.75;60.77;101260.91;4981967;28;45446;-65
2023/08/06 10:14:03;;;;;;;;;1.25;1.00;;;;;18.75;60.48;101271.72;4999209;28;45620;-65
2023/08/06 10:16:29;;;;;;;;;0.75;0.75;;;;;18.68;60.04;101259.53;4999380;28;46248;-66
2023/08/06 10:18:55;;;;;;;;;1.25;1.25;;;;;18.52;59.83;101225.25;4999243;28;45529;-69
2023/08/06 10:21:23;;;;;;;;;1.00;1.00;;;;;18.69;60.21;101251.34;4981696;28;45690;-66
2023/08/06 10:23:54;;;;;;;;;3.25;0.25;;;;;18.83;60.51;101269.47;4999293;28;45347;-67
2023/08/06 10:26:20;;;;;;;;;0.00;0.00;;;;;18.83;61.15;101264.06;4999286;28;45572;-65
2023/08/06 10:28:45;;;;;;;;;1.75;1.00;;;;;18.92;60.58;101268.06;5005368;28;45392;-66
2023/08/06 10:31:10;;;;;;;;;1.00;0.00;;;;;18.92;59.92;101259.09;5017725;28;45568;-66
2023/08/06 10:33:44;;;;;;;;;2.00;2.00;;;;;19.10;59.83;101293.16;5018875;28;46133;-65
2023/08/06 10:36:10;;;;;;;;;1.00;1.00;;;;;18.95;59.45;101277.84;5007974;28;45528;-66
2023/08/06 10:38:47;;;;;;;;;1.25;0.25;;;;;19.00;60.23;101264.91;4999300;28;45413;-65
2023/08/06 10:41:29;;;;;;;;;1.75;1.75;;;;;19.11;60.30;101278.69;4999237;28;45472;-66
2023/08/06 10:44:08;;;;;;;;;2.25;1.50;;;;;19.08;59.29;101278.84;4998805;28;45484;-65
2023/08/06 10:46:33;;;;;;;;;1.00;1.00;;;;;19.09;59.33;101267.06;4998980;28;45427;-66
2023/08/06 10:48:59;;;;;;;;;0.00;0.00;;;;;19.10;58.83;101257.13;4997669;28;45283;-66
2023/08/06 10:51:25;;;;;;;;;3.75;2.00;;;;;19.19;58.93;101280.91;4999186;28;45286;-66
2023/08/06 10:53:51;;;;;;;;;0.75;0.75;;;;;19.25;58.90;101288.66;4999041;28;45398;-65
2023/08/06 10:56:18;;;;;;;;;2.00;1.00;;;;;19.24;58.87;101285.09;4998844;28;46450;-66
2023/08/06 10:58:45;;;;;;;;;1.00;1.00;;;;;19.35;58.69;101289.00;4998742;28;45568;-65
2023/08/06 11:01:11;;;;;;;;;1.00;1.00;;;;;19.47;58.54;101293.66;5000636;28;45489;-66
2023/08/06 11:03:38;;;;;;;;;1.00;1.00;;;;;19.26;58.46;101263.31;5004851;28;45483;-66
2023/08/06 11:06:04;;;;;;;;;1.00;1.00;;;;;19.46;58.51;101291.88;5001932;28;46508;-66
2023/08/06 11:08:37;;;;;;;;;1.25;1.25;;;;;19.33;57.95;101283.66;5002312;28;45349;-66
2023/08/06 11:11:10;;;;;;;;;1.00;1.00;;;;;19.55;59.01;101304.88;5002696;28;45340;-66
2023/08/06 11:13:37;;;;;;;;;0.00;0.00;;;;;19.57;57.75;101302.06;5000768;28;45636;-66
2023/08/06 11:16:02;;;;;;;;;2.00;1.00;;;;;19.51;57.70;101291.63;5002255;28;46027;-66
2023/08/06 11:18:28;;;;;;;;;1.00;1.00;;;;;19.60;57.56;101299.19;5001991;28;45394;-66
2023/08/06 11:20:54;;;;;;;;;0.00;0.00;;;;;19.60;57.07;101300.06;5002462;28;45298;-66